createdAt,value
2018-12-15T00:01:39.899Z,61.27
2018-12-15T00:04:11.134Z,71.20
2018-12-15T00:06:46.125Z,54.93
2018-12-15T00:09:15.806Z,62.30
2018-12-15T00:11:45.250Z,59.33
2018-12-15T00:14:14.762Z,52.30
2018-12-15T00:16:44.835Z,59.37
2018-12-15T00:19:15.970Z,59.57
2018-12-15T00:21:45.438Z,59.17
2018-12-15T00:24:14.923Z,59.50
2018-12-15T00:26:44.410Z,64.33
2018-12-15T00:29:13.934Z,64.47
2018-12-15T00:31:43.418Z,72.57
2018-12-15T00:34:12.926Z,68.57
2018-12-15T00:36:42.419Z,65.33
2018-12-15T00:39:11.903Z,58.93
2018-12-15T00:41:41.386Z,58.93
2018-12-15T00:44:10.881Z,64.13
2018-12-15T00:46:40.386Z,61.47
2018-12-15T00:49:09.874Z,63.67
2018-12-15T00:51:39.403Z,59.17
2018-12-15T00:54:08.937Z,59.80
2018-12-15T00:56:38.679Z,61.07
2018-12-15T00:59:08.278Z,65.27
2018-12-15T01:01:38.094Z,65.43
2018-12-15T01:04:07.591Z,61.60
2018-12-15T01:06:37.122Z,64.33
2018-12-15T01:09:06.672Z,61.20
2018-12-15T01:11:37.362Z,66.27
2018-12-15T01:14:06.902Z,69.00
2018-12-15T01:16:36.404Z,65.97
2018-12-15T01:19:05.888Z,65.80
2018-12-15T01:21:35.410Z,71.67
2018-12-15T01:24:04.912Z,62.00
2018-12-15T01:26:34.399Z,76.33
2018-12-15T01:29:03.911Z,68.67
2018-12-15T01:31:33.403Z,74.90
2018-12-15T01:34:02.942Z,74.80
2018-12-15T01:36:33.098Z,70.20
2018-12-15T01:39:03.199Z,67.97
2018-12-15T01:41:34.447Z,69.67
2018-12-15T01:44:04.454Z,67.20
2018-12-15T01:46:33.942Z,66.00
2018-12-15T01:49:03.453Z,69.07
2018-12-15T01:51:32.974Z,78.03
2018-12-15T01:54:02.494Z,71.93
2018-12-15T01:56:31.987Z,81.73
2018-12-15T01:59:01.490Z,75.50
2018-12-15T02:01:30.994Z,72.43
2018-12-15T02:04:00.612Z,72.40
2018-12-15T02:06:31.214Z,79.13
2018-12-15T02:09:01.247Z,71.77
2018-12-15T02:11:32.538Z,70.00
2018-12-15T02:14:02.115Z,72.27
2018-12-15T02:16:31.623Z,80.73
2018-12-15T02:19:05.902Z,83.27
2018-12-15T02:21:35.677Z,72.80
2018-12-15T02:24:05.178Z,80.97
2018-12-15T02:26:34.688Z,86.67
2018-12-15T02:29:04.655Z,84.20
2018-12-15T02:31:34.177Z,85.70
2018-12-15T02:34:03.683Z,78.23
2018-12-15T02:36:33.181Z,71.77
2018-12-15T02:39:02.718Z,68.00
2018-12-15T02:41:33.407Z,80.50
2018-12-15T02:44:02.944Z,75.90
2018-12-15T02:46:33.537Z,80.33
2018-12-15T02:49:03.061Z,80.20
2018-12-15T02:51:32.559Z,74.03
2018-12-15T02:54:02.049Z,76.00
2018-12-15T02:56:31.543Z,74.97
2018-12-15T02:59:01.030Z,76.77
2018-12-15T03:01:30.547Z,80.80
2018-12-15T03:04:00.047Z,77.53
2018-12-15T03:06:29.538Z,69.27
2018-12-15T03:08:59.098Z,70.30
2018-12-15T03:11:28.610Z,74.80
2018-12-15T03:13:57.761Z,80.37
2018-12-15T03:16:27.166Z,79.77
2018-12-15T03:18:56.680Z,83.50
2018-12-15T03:21:26.155Z,78.33
2018-12-15T03:23:55.652Z,66.70
2018-12-15T03:26:25.242Z,72.10
2018-12-15T03:28:54.742Z,81.60
2018-12-15T03:31:24.243Z,67.17
2018-12-15T03:33:53.770Z,72.20
2018-12-15T03:36:23.289Z,73.30
2018-12-15T03:38:52.775Z,78.20
2018-12-15T03:41:22.306Z,78.53
2018-12-15T03:43:51.803Z,86.03
2018-12-15T03:46:21.300Z,84.63
2018-12-15T03:48:50.815Z,80.97
2018-12-15T03:51:20.330Z,76.43
2018-12-15T03:53:50.076Z,88.83
2018-12-15T03:56:19.603Z,83.40
2018-12-15T03:58:49.083Z,78.77
2018-12-15T04:01:18.607Z,90.27
2018-12-15T04:03:48.092Z,77.93
2018-12-15T04:06:17.655Z,73.07
2018-12-15T04:08:47.190Z,82.60
2018-12-15T04:11:16.682Z,80.83
2018-12-15T04:13:46.179Z,76.97
2018-12-15T04:16:15.734Z,70.67
2018-12-15T04:18:45.229Z,73.73
2018-12-15T04:21:14.782Z,73.43
2018-12-15T04:23:44.290Z,67.60
2018-12-15T04:26:13.823Z,68.77
2018-12-15T04:28:43.320Z,66.63
2018-12-15T04:31:12.816Z,62.67
2018-12-15T04:33:42.314Z,69.23
2018-12-15T04:36:19.452Z,68.30
2018-12-15T04:38:48.934Z,63.50
2018-12-15T04:41:18.436Z,64.07
2018-12-15T04:43:48.519Z,60.03
2018-12-15T04:46:18.063Z,56.27
2018-12-15T04:48:47.594Z,66.40
2018-12-15T04:51:17.126Z,69.67
2018-12-15T04:53:46.650Z,55.77
2018-12-15T04:56:16.147Z,59.70
2018-12-15T04:58:45.695Z,67.37
2018-12-15T05:01:15.196Z,61.87
2018-12-15T05:03:44.674Z,60.30
2018-12-15T05:06:14.188Z,55.53
2018-12-15T05:08:43.684Z,65.23
2018-12-15T05:11:13.199Z,65.13
2018-12-15T05:13:42.703Z,58.63
2018-12-15T05:16:11.894Z,63.57
2018-12-15T05:18:41.298Z,58.87
2018-12-15T05:21:10.782Z,72.73
2018-12-15T05:23:40.271Z,57.60
2018-12-15T05:26:09.763Z,63.60
2018-12-15T05:28:39.265Z,59.20
2018-12-15T05:31:08.787Z,54.30
2018-12-15T05:33:38.278Z,57.03
2018-12-15T05:36:07.766Z,59.67
2018-12-15T05:38:37.261Z,58.23
2018-12-15T05:41:06.779Z,49.30
2018-12-15T05:43:36.275Z,62.80
2018-12-15T05:46:05.818Z,53.60
2018-12-15T05:48:35.303Z,48.53
2018-12-15T05:51:04.839Z,58.20
2018-12-15T05:53:34.577Z,56.07
2018-12-15T05:56:04.141Z,51.60
2018-12-15T05:58:33.639Z,59.23
2018-12-15T06:01:03.147Z,53.87
2018-12-15T06:03:32.638Z,52.47
2018-12-15T06:06:01.795Z,60.07
2018-12-15T06:08:31.191Z,55.90
2018-12-15T06:11:00.727Z,57.13
2018-12-15T06:13:30.235Z,62.67
2018-12-15T06:15:59.782Z,54.37
2018-12-15T06:18:31.730Z,54.43
2018-12-15T06:21:01.691Z,54.33
2018-12-15T06:23:31.194Z,56.37
2018-12-15T06:26:00.774Z,57.57
2018-12-15T06:28:30.311Z,60.27
2018-12-15T06:31:00.298Z,56.63
2018-12-15T06:33:29.814Z,60.43
2018-12-15T06:35:59.346Z,62.53
2018-12-15T06:38:28.906Z,52.73
2018-12-15T06:40:58.433Z,55.60
2018-12-15T06:43:28.630Z,58.80
2018-12-15T06:45:59.390Z,60.60
2018-12-15T06:48:28.963Z,62.33
2018-12-15T06:51:00.117Z,61.60
2018-12-15T06:53:30.022Z,57.93
2018-12-15T06:55:59.559Z,58.87
2018-12-15T06:58:29.063Z,62.93
2018-12-15T07:00:58.579Z,56.97
2018-12-15T07:03:28.144Z,56.87
2018-12-15T07:05:57.679Z,64.57
2018-12-15T07:08:27.187Z,59.07
2018-12-15T07:10:56.718Z,50.73
2018-12-15T07:13:26.495Z,58.23
2018-12-15T07:15:56.030Z,63.17
2018-12-15T07:18:25.520Z,60.37
2018-12-15T07:20:55.034Z,58.77
2018-12-15T07:23:24.538Z,58.33
2018-12-15T07:25:54.411Z,62.27
2018-12-15T07:28:23.950Z,61.23
2018-12-15T07:30:53.452Z,62.77
2018-12-15T07:33:22.942Z,60.00
2018-12-15T07:35:52.483Z,55.63
2018-12-15T07:38:21.974Z,54.67
2018-12-15T07:40:51.471Z,55.93
2018-12-15T07:43:21.014Z,55.60
2018-12-15T07:45:50.503Z,63.67
2018-12-15T07:48:19.994Z,59.13
2018-12-15T07:50:49.507Z,58.20
2018-12-15T07:53:19.011Z,57.87
2018-12-15T07:55:48.538Z,65.23
2018-12-15T07:58:18.031Z,63.30
2018-12-15T08:00:47.561Z,64.40
2018-12-15T08:03:17.047Z,64.47
2018-12-15T08:05:46.546Z,53.23
2018-12-15T08:08:16.051Z,61.73
2018-12-15T08:10:50.950Z,55.60
2018-12-15T08:13:32.605Z,57.87
2018-12-15T08:16:02.134Z,56.50
2018-12-15T08:18:31.626Z,55.57
2018-12-15T08:21:01.122Z,60.10
2018-12-15T08:23:30.623Z,50.23
2018-12-15T08:26:00.115Z,55.47
2018-12-15T08:28:29.602Z,50.63
2018-12-15T08:30:59.114Z,55.80
2018-12-15T08:33:28.615Z,57.43
2018-12-15T08:35:58.130Z,51.23
2018-12-15T08:38:27.638Z,54.07
2018-12-15T08:40:57.675Z,52.83
2018-12-15T08:43:27.223Z,52.73
2018-12-15T08:45:56.764Z,49.23
2018-12-15T08:48:26.258Z,51.37
2018-12-15T08:50:55.781Z,50.43
2018-12-15T08:53:25.299Z,58.10
2018-12-15T08:55:54.791Z,53.57
2018-12-15T08:58:24.290Z,50.90
2018-12-15T09:00:53.802Z,45.97
2018-12-15T09:03:22.974Z,53.10
2018-12-15T09:05:52.379Z,50.67
2018-12-15T09:08:21.878Z,55.90
2018-12-15T09:10:51.523Z,62.13
2018-12-15T09:13:21.030Z,56.73
2018-12-15T09:15:50.534Z,56.40
2018-12-15T09:18:19.674Z,55.53
2018-12-15T09:20:49.115Z,57.43
2018-12-15T09:23:19.568Z,51.43
2018-12-15T09:25:49.115Z,54.53
2018-12-15T09:28:18.630Z,45.63
2018-12-15T09:30:48.164Z,52.37
2018-12-15T09:33:17.677Z,51.30
2018-12-15T09:35:46.823Z,48.80
2018-12-15T09:38:16.295Z,52.37
2018-12-15T09:40:45.823Z,51.13
2018-12-15T09:43:15.374Z,50.93
2018-12-15T09:45:44.942Z,53.03
2018-12-15T09:48:15.746Z,47.97
2018-12-15T09:50:45.290Z,50.30
2018-12-15T09:53:14.874Z,51.20
2018-12-15T09:55:44.404Z,50.23
2018-12-15T09:58:13.890Z,47.73
2018-12-15T10:00:43.463Z,57.47
2018-12-15T10:03:12.956Z,43.77
2018-12-15T10:05:42.939Z,45.80
2018-12-15T10:08:12.503Z,46.77
2018-12-15T10:10:42.262Z,54.83
2018-12-15T10:13:11.434Z,48.70
2018-12-15T10:15:41.387Z,50.07
2018-12-15T10:18:10.920Z,50.50
2018-12-15T10:20:41.465Z,50.33
2018-12-15T10:23:11.014Z,51.10
2018-12-15T10:25:40.547Z,45.20
2018-12-15T10:28:10.043Z,43.47
2018-12-15T10:30:44.947Z,45.10
2018-12-15T10:33:14.451Z,45.63
2018-12-15T10:35:43.598Z,40.73
2018-12-15T10:38:13.067Z,39.13
2018-12-15T10:40:42.927Z,37.37
2018-12-15T10:43:12.486Z,42.83
2018-12-15T10:45:41.995Z,37.57
2018-12-15T10:48:11.526Z,43.53
2018-12-15T10:50:41.338Z,38.37
2018-12-15T10:53:10.858Z,44.50
2018-12-15T10:55:41.001Z,38.27
2018-12-15T10:58:10.105Z,47.50
2018-12-15T11:00:45.106Z,43.60
2018-12-15T11:03:14.558Z,41.20
2018-12-15T11:05:44.066Z,41.77
2018-12-15T11:08:13.586Z,40.10
2018-12-15T11:10:43.122Z,39.47
2018-12-15T11:13:13.635Z,37.77
2018-12-15T11:15:43.156Z,44.10
2018-12-15T11:18:12.718Z,42.07
2018-12-15T11:20:42.232Z,44.13
2018-12-15T11:23:11.381Z,39.53
2018-12-15T11:25:41.000Z,42.50
2018-12-15T11:28:10.141Z,38.83
2018-12-15T11:30:40.667Z,44.63
2018-12-15T11:33:09.804Z,61.63
2018-12-15T11:35:39.214Z,50.33
2018-12-15T11:38:08.765Z,49.67
2018-12-15T11:40:37.957Z,48.30
2018-12-15T11:43:07.451Z,50.73
2018-12-15T11:45:37.005Z,46.17
2018-12-15T11:48:06.750Z,44.50
2018-12-15T11:50:36.332Z,45.50
2018-12-15T13:46:40.978Z,55.10
2018-12-15T13:49:10.231Z,60.33
2018-12-15T13:51:39.719Z,59.53
2018-12-15T13:54:10.503Z,50.10
2018-12-15T13:56:40.002Z,54.90
2018-12-15T13:59:09.506Z,56.77
2018-12-15T14:01:39.003Z,49.07
2018-12-15T14:04:08.530Z,51.00
2018-12-15T14:06:38.042Z,48.47
2018-12-15T14:09:07.575Z,48.67
2018-12-15T14:11:37.040Z,53.27
2018-12-15T14:14:06.562Z,46.27
2018-12-15T14:16:36.094Z,54.80
2018-12-15T14:19:05.606Z,54.40
2018-12-15T14:21:49.798Z,52.33
2018-12-15T14:24:19.425Z,53.97
2018-12-15T14:26:50.547Z,52.63
2018-12-15T14:29:20.046Z,52.87
2018-12-15T14:31:49.578Z,47.93
2018-12-15T14:34:20.412Z,47.77
2018-12-15T14:36:52.051Z,55.13
2018-12-15T14:39:21.551Z,59.23
2018-12-15T14:41:51.115Z,52.50
2018-12-15T14:44:20.662Z,56.00
2018-12-15T14:46:50.270Z,58.70
2018-12-15T14:49:19.778Z,54.10
2018-12-15T14:51:48.930Z,56.97
2018-12-15T14:54:18.348Z,55.30
2018-12-15T14:56:47.839Z,49.20
2018-12-15T14:59:17.347Z,52.57
2018-12-15T15:01:47.303Z,54.20
2018-12-15T15:04:17.162Z,46.23
2018-12-15T15:06:47.704Z,60.53
2018-12-15T15:09:18.076Z,51.60
2018-12-15T15:11:47.205Z,54.60
2018-12-15T15:14:16.246Z,51.20
2018-12-15T15:16:45.674Z,52.13
2018-12-15T15:19:15.183Z,53.03
2018-12-15T15:21:44.703Z,48.77
2018-12-15T15:24:13.875Z,46.77
2018-12-15T15:26:43.764Z,48.33
2018-12-15T15:29:13.282Z,62.77
2018-12-15T15:31:42.791Z,46.97
2018-12-15T15:34:12.885Z,45.87
2018-12-15T15:36:42.375Z,49.67
2018-12-15T15:39:11.920Z,51.50
2018-12-15T15:41:41.091Z,43.53
2018-12-15T15:44:10.562Z,42.03
2018-12-15T15:46:40.050Z,44.57
2018-12-15T15:49:14.005Z,48.07
2018-12-15T15:51:47.873Z,42.10
2018-12-15T15:54:22.150Z,43.77
2018-12-15T15:56:51.886Z,43.67
2018-12-15T15:59:21.410Z,43.30
2018-12-15T16:01:50.550Z,45.97
2018-12-15T16:04:19.658Z,43.67
2018-12-15T16:06:49.078Z,36.67
2018-12-15T16:09:18.802Z,42.20
2018-12-15T16:11:47.942Z,40.17
2018-12-15T16:14:17.480Z,42.10
2018-12-15T16:16:46.729Z,39.77
2018-12-15T16:19:16.452Z,37.03
2018-12-15T16:21:45.990Z,35.47
2018-12-15T16:24:15.588Z,36.70
2018-12-15T16:26:45.127Z,38.20
2018-12-15T16:29:15.387Z,35.13
2018-12-15T16:31:44.890Z,36.33
2018-12-15T16:34:14.414Z,37.67
2018-12-15T16:36:44.197Z,35.67
2018-12-15T16:39:13.688Z,39.20
2018-12-15T16:41:42.821Z,32.63
2018-12-15T16:44:12.281Z,35.93
2018-12-15T16:46:42.038Z,35.40
2018-12-15T16:51:44.391Z,42.57
2018-12-15T16:54:13.878Z,34.03
2018-12-15T16:56:43.383Z,34.77
2018-12-15T16:59:12.927Z,30.77
2018-12-15T17:01:42.431Z,37.70
2018-12-15T17:04:11.950Z,35.43
2018-12-15T17:06:41.482Z,36.87
2018-12-15T17:09:11.080Z,38.67
2018-12-15T17:11:41.022Z,34.50
2018-12-15T17:14:11.759Z,36.87
2018-12-15T17:16:41.012Z,38.87
2018-12-15T17:19:10.448Z,36.17
2018-12-15T17:21:39.638Z,38.07
2018-12-15T17:24:09.050Z,35.17
2018-12-15T17:27:05.099Z,31.10
2018-12-15T17:29:34.578Z,28.77
2018-12-15T17:32:04.086Z,28.37
2018-12-15T17:34:33.575Z,29.63
2018-12-15T17:37:04.300Z,31.00
2018-12-15T17:39:34.407Z,32.97
2018-12-15T17:42:04.014Z,35.43
2018-12-15T17:44:33.756Z,34.97
2018-12-15T17:47:03.272Z,41.07
2018-12-15T17:49:32.770Z,44.07
2018-12-15T17:52:02.336Z,38.90
2018-12-15T17:54:31.603Z,40.57
2018-12-15T17:57:01.208Z,41.63
2018-12-15T17:59:30.730Z,33.00
2018-12-15T18:02:00.717Z,36.07
2018-12-15T18:04:32.930Z,44.67
2018-12-15T18:07:02.453Z,40.10
2018-12-15T18:09:33.142Z,39.67
2018-12-15T18:12:02.712Z,34.17
2018-12-15T18:14:31.958Z,43.23
2018-12-15T18:17:01.535Z,37.50
2018-12-15T18:19:31.663Z,47.00
2018-12-15T18:22:01.199Z,44.73
2018-12-15T18:24:30.880Z,41.20
2018-12-15T18:27:00.366Z,41.87
2018-12-15T18:29:29.964Z,43.10
2018-12-15T18:31:59.459Z,44.13
2018-12-15T18:34:28.964Z,41.63
2018-12-15T18:36:58.150Z,47.10
2018-12-15T18:39:27.599Z,42.73
2018-12-15T18:41:56.736Z,45.90
2018-12-15T18:44:25.790Z,49.10
2018-12-15T18:46:55.282Z,45.80
2018-12-15T18:49:24.831Z,45.53
2018-12-15T18:51:55.272Z,53.93
2018-12-15T18:54:24.787Z,47.93
2018-12-15T18:56:54.758Z,52.73
2018-12-15T18:59:25.634Z,50.47
2018-12-15T19:01:55.378Z,50.90
2018-12-15T19:04:24.908Z,52.67
2018-12-15T19:06:54.423Z,51.20
2018-12-15T19:09:23.954Z,54.37
2018-12-15T19:11:53.078Z,52.73
2018-12-15T19:14:23.075Z,51.87
2018-12-15T19:16:52.559Z,58.53
2018-12-15T19:19:22.225Z,63.53
2018-12-15T19:21:51.754Z,52.83
2018-12-15T19:24:21.262Z,55.10
2018-12-15T19:26:50.772Z,52.43
2018-12-15T19:29:20.303Z,53.83
2018-12-15T19:31:50.894Z,60.53
2018-12-15T19:34:20.509Z,55.50
2018-12-15T19:36:49.667Z,53.03
2018-12-15T19:39:18.737Z,60.27
2018-12-15T19:41:48.194Z,52.17
2018-12-15T19:44:17.792Z,48.70
2018-12-15T19:46:47.314Z,48.27
2018-12-15T19:49:16.832Z,51.97
2018-12-15T19:51:46.359Z,50.37
2018-12-15T19:54:15.900Z,52.43
2018-12-15T19:56:45.030Z,53.57
2018-12-15T19:59:14.522Z,48.47
2018-12-15T20:01:44.698Z,49.53
2018-12-15T20:04:15.123Z,49.73
2018-12-15T20:06:44.649Z,47.50
2018-12-15T20:09:14.263Z,46.77
2018-12-15T20:11:43.474Z,46.57
2018-12-15T20:14:13.208Z,47.07
2018-12-15T20:16:43.226Z,46.03
2018-12-15T20:19:12.734Z,44.90
2018-12-15T20:21:42.536Z,40.90
2018-12-15T20:24:12.051Z,42.80
2018-12-15T20:26:41.193Z,38.27
2018-12-15T20:29:10.624Z,44.03
2018-12-15T20:31:40.257Z,40.77
2018-12-15T20:34:09.414Z,38.87
2018-12-15T20:36:38.847Z,36.10
2018-12-15T20:39:08.371Z,37.60
2018-12-15T20:41:38.216Z,41.00
2018-12-15T20:44:08.739Z,38.13
2018-12-15T20:46:38.791Z,35.50
2018-12-15T20:49:09.194Z,37.80
2018-12-15T20:51:42.771Z,41.90
2018-12-15T20:54:16.665Z,39.23
2018-12-15T20:56:46.555Z,40.67
2018-12-15T20:59:16.787Z,41.03
2018-12-15T21:01:47.254Z,45.83
2018-12-15T21:04:17.895Z,37.97
2018-12-15T21:06:47.788Z,36.67
2018-12-15T21:09:17.838Z,41.03
2018-12-15T21:11:52.005Z,41.07
2018-12-15T21:14:21.973Z,40.53
2018-12-15T21:16:52.119Z,39.17
2018-12-15T21:19:22.307Z,40.27
2018-12-15T21:21:52.451Z,40.93
2018-12-15T21:24:22.466Z,43.73
2018-12-15T21:26:52.433Z,48.13
2018-12-15T21:29:22.484Z,44.93
2018-12-15T21:31:56.672Z,47.23
2018-12-15T21:34:24.821Z,42.40
2018-12-15T21:36:54.915Z,41.77
2018-12-15T21:39:25.198Z,45.23
2018-12-15T21:41:54.819Z,43.13
2018-12-15T21:44:25.564Z,43.97
2018-12-15T21:46:55.342Z,45.60
2018-12-15T21:49:24.948Z,39.83
2018-12-15T21:51:56.342Z,34.30
2018-12-15T21:54:26.594Z,39.00
2018-12-15T21:56:56.132Z,40.90
2018-12-15T21:59:25.411Z,42.03
2018-12-15T22:01:54.875Z,40.27
2018-12-15T22:04:24.377Z,44.57
2018-12-15T22:06:53.878Z,41.30
2018-12-15T22:09:23.407Z,46.77
2018-12-15T22:11:52.927Z,44.60
2018-12-15T22:14:22.420Z,42.57
2018-12-15T22:16:51.962Z,43.60
2018-12-15T22:19:21.491Z,47.40
2018-12-15T22:21:50.991Z,46.60
2018-12-15T22:24:20.494Z,44.33
2018-12-15T22:26:49.998Z,47.73
2018-12-15T22:29:19.515Z,45.30
2018-12-15T22:31:49.027Z,49.30
2018-12-15T22:34:18.559Z,51.03
2018-12-15T22:36:48.054Z,47.83
2018-12-15T22:39:17.626Z,40.63
2018-12-15T22:41:47.118Z,45.63
2018-12-15T22:44:16.623Z,46.53
2018-12-15T22:46:46.131Z,41.37
2018-12-15T22:49:15.610Z,41.87
2018-12-15T22:51:45.158Z,47.13
2018-12-15T22:54:14.642Z,44.87
2018-12-15T22:56:44.158Z,39.40
2018-12-15T22:59:13.663Z,37.00
2018-12-15T23:01:46.211Z,42.50
2018-12-15T23:04:16.000Z,35.83
2018-12-15T23:06:45.502Z,40.03
2018-12-15T23:09:15.047Z,41.27
2018-12-15T23:11:44.830Z,40.43
2018-12-15T23:14:14.385Z,37.07
2018-12-15T23:16:43.878Z,40.33
2018-12-15T23:19:13.390Z,40.27
2018-12-15T23:21:44.194Z,40.13
2018-12-15T23:24:13.706Z,33.77
2018-12-15T23:26:43.198Z,38.97
2018-12-15T23:29:12.701Z,36.23
2018-12-15T23:31:42.197Z,36.43
2018-12-15T23:34:11.679Z,37.57
2018-12-15T23:36:41.197Z,39.13
2018-12-15T23:39:10.722Z,36.23
2018-12-15T23:41:40.259Z,38.33
2018-12-15T23:44:09.770Z,40.67
2018-12-15T23:46:39.278Z,36.97
2018-12-15T23:49:08.928Z,35.97
2018-12-15T23:51:38.490Z,38.90
2018-12-15T23:54:07.996Z,36.37
2018-12-15T23:56:44.945Z,35.97
2018-12-15T23:59:14.680Z,33.17
